createdAt,value
2017-06-24T00:00:47.479Z,0
2017-06-24T00:01:47.526Z,0
2017-06-24T00:02:47.594Z,0
2017-06-24T00:03:47.647Z,0
2017-06-24T00:04:47.637Z,0
2017-06-24T00:05:47.923Z,0
2017-06-24T00:06:47.986Z,0
2017-06-24T00:07:47.725Z,0
2017-06-24T00:08:47.839Z,0
2017-06-24T00:09:47.808Z,0
2017-06-24T00:10:49.000Z,0
2017-06-24T00:11:47.970Z,0
2017-06-24T00:12:48.488Z,0
2017-06-24T00:13:47.957Z,0
2017-06-24T00:14:48.022Z,0
2017-06-24T00:15:48.048Z,0
2017-06-24T00:16:48.092Z,0
2017-06-24T00:17:48.799Z,0
2017-06-24T00:18:48.169Z,0
2017-06-24T00:19:48.170Z,0
2017-06-24T00:20:48.266Z,0
2017-06-24T00:21:48.552Z,0
2017-06-24T00:22:49.942Z,0
2017-06-24T00:23:50.001Z,0
2017-06-24T00:24:49.039Z,0
2017-06-24T00:25:48.440Z,0
2017-06-24T00:26:48.441Z,0
2017-06-24T00:27:48.695Z,0
2017-06-24T00:28:48.580Z,0
2017-06-24T00:29:48.772Z,0
2017-06-24T00:30:48.590Z,0
2017-06-24T00:32:01.364Z,0
2017-06-24T00:32:48.662Z,0
2017-06-24T00:33:48.777Z,0
2017-06-24T00:34:48.728Z,0
2017-06-24T00:35:48.816Z,0
2017-06-24T00:36:48.843Z,0
2017-06-24T00:37:48.836Z,0
2017-06-24T00:38:48.879Z,0
2017-06-24T00:39:48.897Z,0
2017-06-24T00:40:48.978Z,0
2017-06-24T00:41:49.045Z,0
2017-06-24T00:42:49.015Z,0
2017-06-24T00:43:49.138Z,0
2017-06-24T00:44:49.113Z,0
2017-06-24T00:45:49.159Z,0
2017-06-24T00:46:49.175Z,0
2017-06-24T00:47:49.242Z,0
2017-06-24T00:48:49.244Z,0
2017-06-24T00:49:49.319Z,0
2017-06-24T00:50:49.374Z,0
2017-06-24T00:51:49.362Z,0
2017-06-24T00:52:49.428Z,0
2017-06-24T00:53:49.451Z,0
2017-06-24T00:54:49.461Z,0
2017-06-24T00:55:49.566Z,0
2017-06-24T00:56:49.565Z,0
2017-06-24T00:57:49.613Z,0
2017-06-24T00:58:49.633Z,0
2017-06-24T00:59:49.675Z,0
2017-06-24T01:00:49.747Z,0
2017-06-24T01:01:49.770Z,0
2017-06-24T01:02:49.816Z,0
2017-06-24T01:03:49.817Z,0
2017-06-24T01:04:49.878Z,0
2017-06-24T01:05:49.888Z,0
2017-06-24T01:06:49.941Z,0
2017-06-24T01:07:50.045Z,0
2017-06-24T01:08:50.038Z,0
2017-06-24T01:09:50.083Z,0
2017-06-24T01:10:50.074Z,0
2017-06-24T01:11:50.171Z,0
2017-06-24T01:12:50.126Z,0
2017-06-24T01:13:50.192Z,0
2017-06-24T01:14:50.200Z,0
2017-06-24T01:15:50.214Z,0
2017-06-24T01:16:50.284Z,0
2017-06-24T01:17:50.329Z,0
2017-06-24T01:18:50.382Z,0
2017-06-24T01:19:50.457Z,0
2017-06-24T01:20:50.436Z,0
2017-06-24T01:21:50.473Z,0
2017-06-24T01:22:50.546Z,0
2017-06-24T01:23:50.551Z,0
2017-06-24T01:24:50.587Z,0
2017-06-24T01:25:50.609Z,0
2017-06-24T01:26:50.645Z,0
2017-06-24T01:27:50.666Z,0
2017-06-24T01:28:50.725Z,0
2017-06-24T01:29:50.764Z,0
2017-06-24T01:30:50.819Z,0
2017-06-24T01:31:50.889Z,0
2017-06-24T01:32:50.839Z,0
2017-06-24T01:33:50.953Z,0
2017-06-24T01:34:50.938Z,0
2017-06-24T01:35:50.969Z,0
2017-06-24T01:36:51.037Z,0
2017-06-24T01:37:51.081Z,0
2017-06-24T01:38:51.095Z,0
2017-06-24T01:39:51.185Z,0
2017-06-24T01:40:51.175Z,0
2017-06-24T01:41:51.206Z,0
2017-06-24T01:42:51.213Z,0
2017-06-24T01:43:51.311Z,0
2017-06-24T01:44:51.351Z,0
2017-06-24T01:45:51.387Z,0
2017-06-24T01:46:51.355Z,0
2017-06-24T01:47:51.535Z,0
2017-06-24T01:48:51.441Z,0
2017-06-24T01:49:51.467Z,0
2017-06-24T01:50:51.737Z,0
2017-06-24T01:51:51.615Z,0
2017-06-24T01:52:51.674Z,0
2017-06-24T01:53:51.609Z,0
2017-06-24T01:54:51.696Z,0
2017-06-24T01:55:51.755Z,0
2017-06-24T01:56:51.736Z,0
2017-06-24T01:57:51.811Z,0
2017-06-24T01:58:51.857Z,0
2017-06-24T01:59:51.858Z,0
2017-06-24T02:00:51.912Z,0
2017-06-24T02:01:51.952Z,0
2017-06-24T02:02:52.206Z,0
2017-06-24T02:03:52.358Z,0
2017-06-24T02:04:52.041Z,0
2017-06-24T02:05:52.145Z,0
2017-06-24T02:06:52.127Z,0
2017-06-24T02:07:52.144Z,0
2017-06-24T02:08:52.196Z,0
2017-06-24T02:09:52.240Z,0
2017-06-24T02:10:52.255Z,0
2017-06-24T02:11:52.319Z,0
2017-06-24T02:12:52.379Z,0
2017-06-24T02:13:52.365Z,0
2017-06-24T02:14:52.419Z,0
2017-06-24T02:15:52.411Z,0
2017-06-24T02:16:52.456Z,0
2017-06-24T02:17:52.612Z,0
2017-06-24T02:18:52.556Z,0
2017-06-24T02:19:52.593Z,0
2017-06-24T02:20:52.627Z,0
2017-06-24T02:21:52.629Z,0
2017-06-24T02:22:52.693Z,0
2017-06-24T02:23:52.740Z,0
2017-06-24T02:24:52.780Z,0
2017-06-24T02:25:52.814Z,0
2017-06-24T02:26:52.889Z,0
2017-06-24T02:27:52.908Z,0
2017-06-24T02:28:52.941Z,0
2017-06-24T02:29:52.952Z,0
2017-06-24T02:30:52.962Z,0
2017-06-24T02:31:53.041Z,0
2017-06-24T02:32:53.014Z,0
2017-06-24T02:33:53.108Z,0
2017-06-24T02:34:53.151Z,0
2017-06-24T02:35:53.156Z,0
2017-06-24T02:36:53.214Z,0
2017-06-24T02:37:53.289Z,0
2017-06-24T02:38:53.229Z,0
2017-06-24T02:39:53.297Z,0
2017-06-24T02:40:53.400Z,0
2017-06-24T02:41:53.347Z,0
2017-06-24T02:42:53.463Z,0
2017-06-24T02:43:53.452Z,0
2017-06-24T02:44:53.499Z,0
2017-06-24T02:45:53.476Z,0
2017-06-24T02:46:53.613Z,0
2017-06-24T02:47:53.674Z,0
2017-06-24T02:48:53.619Z,0
2017-06-24T02:49:53.698Z,0
2017-06-24T02:50:53.695Z,0
2017-06-24T02:51:53.741Z,0
2017-06-24T02:52:53.827Z,0
2017-06-24T02:53:53.833Z,0
2017-06-24T02:54:53.863Z,0
2017-06-24T02:55:53.876Z,0
2017-06-24T02:56:53.913Z,0
2017-06-24T02:57:53.970Z,5
2017-06-24T02:58:54.057Z,5
2017-06-24T02:59:54.032Z,5
2017-06-24T03:00:54.079Z,5
2017-06-24T03:01:54.092Z,5
2017-06-24T03:02:54.112Z,5
2017-06-24T03:03:54.299Z,5
2017-06-24T03:04:54.324Z,5
2017-06-24T03:05:54.290Z,5
2017-06-24T03:06:54.275Z,5
2017-06-24T03:07:54.329Z,5
2017-06-24T03:08:54.328Z,5
2017-06-24T03:09:54.368Z,5
2017-06-24T03:10:54.607Z,10
2017-06-24T03:11:54.501Z,10
2017-06-24T03:12:54.535Z,10
2017-06-24T03:13:54.738Z,5
2017-06-24T03:14:54.591Z,5
2017-06-24T03:15:54.832Z,10
2017-06-24T03:16:54.661Z,10
2017-06-24T03:17:54.677Z,10
2017-06-24T03:18:54.732Z,10
2017-06-24T03:19:54.732Z,15
2017-06-24T03:20:55.216Z,15
2017-06-24T03:21:54.838Z,15
2017-06-24T03:22:54.875Z,15
2017-06-24T03:23:54.937Z,15
2017-06-24T03:24:54.935Z,15
2017-06-24T03:25:55.006Z,15
2017-06-24T03:26:55.220Z,15
2017-06-24T03:27:55.032Z,15
2017-06-24T03:28:55.157Z,10
2017-06-24T03:29:55.387Z,10
2017-06-24T03:30:55.145Z,10
2017-06-24T03:31:55.183Z,10
2017-06-24T03:32:55.222Z,10
2017-06-24T03:33:55.292Z,15
2017-06-24T03:34:55.302Z,15
2017-06-24T03:35:55.321Z,20
2017-06-24T03:36:55.388Z,20
2017-06-24T03:37:55.415Z,20
2017-06-24T03:38:55.445Z,25
2017-06-24T03:39:55.471Z,25
2017-06-24T03:40:55.476Z,30
2017-06-24T03:41:55.531Z,30
2017-06-24T03:42:55.634Z,35
2017-06-24T03:43:55.623Z,35
2017-06-24T03:44:55.643Z,35
2017-06-24T03:45:55.696Z,35
2017-06-24T03:46:55.714Z,35
2017-06-24T03:47:55.728Z,35
2017-06-24T03:48:55.792Z,35
2017-06-24T03:49:55.803Z,30
2017-06-24T03:50:55.847Z,30
2017-06-24T03:51:55.899Z,30
2017-06-24T03:52:55.947Z,30
2017-06-24T03:53:56.013Z,30
2017-06-24T03:54:55.997Z,35
2017-06-24T03:55:56.047Z,35
2017-06-24T03:56:56.130Z,40
2017-06-24T03:57:56.145Z,40
2017-06-24T03:58:56.355Z,45
2017-06-24T03:59:56.275Z,45
2017-06-24T04:00:56.206Z,45
2017-06-24T04:01:56.262Z,40
2017-06-24T04:02:56.277Z,40
2017-06-24T04:03:56.303Z,45
2017-06-24T04:04:56.357Z,45
2017-06-24T04:05:56.379Z,50
2017-06-24T04:06:56.449Z,50
2017-06-24T04:07:56.429Z,55
2017-06-24T04:08:56.487Z,60
2017-06-24T04:09:56.570Z,65
2017-06-24T04:10:56.593Z,70
2017-06-24T04:11:56.606Z,70
2017-06-24T04:12:56.623Z,70
2017-06-24T04:13:56.728Z,70
2017-06-24T04:14:56.737Z,65
2017-06-24T04:15:56.782Z,70
2017-06-24T04:16:56.817Z,75
2017-06-24T04:17:56.852Z,80
2017-06-24T04:18:56.871Z,85
2017-06-24T04:19:56.901Z,80
2017-06-24T04:20:56.962Z,75
2017-06-24T04:21:57.018Z,75
2017-06-24T04:22:56.999Z,80
2017-06-24T04:23:57.106Z,80
2017-06-24T04:24:57.110Z,85
2017-06-24T04:25:57.138Z,85
2017-06-24T04:26:57.350Z,80
2017-06-24T04:27:57.229Z,80
2017-06-24T04:28:57.218Z,80
2017-06-24T04:29:57.290Z,75
2017-06-24T04:30:57.321Z,75
2017-06-24T04:31:57.345Z,70
2017-06-24T04:32:57.368Z,70
2017-06-24T04:33:57.418Z,70
2017-06-24T04:34:57.542Z,65
2017-06-24T04:35:57.482Z,70
2017-06-24T04:36:57.539Z,70
2017-06-24T04:37:57.564Z,70
2017-06-24T04:38:57.580Z,70
2017-06-24T04:39:57.642Z,70
2017-06-24T04:40:57.668Z,75
2017-06-24T04:41:57.710Z,80
2017-06-24T04:42:57.766Z,85
2017-06-24T04:43:57.819Z,85
2017-06-24T04:44:57.821Z,95
2017-06-24T04:45:57.876Z,105
2017-06-24T04:46:57.874Z,110
2017-06-24T04:47:57.924Z,110
2017-06-24T04:48:57.990Z,105
2017-06-24T04:49:58.047Z,110
2017-06-24T04:50:58.000Z,105
2017-06-24T04:51:58.389Z,100
2017-06-24T04:52:58.085Z,100
2017-06-24T04:53:58.134Z,105
2017-06-24T04:54:58.196Z,105
2017-06-24T04:55:58.234Z,115
2017-06-24T04:56:58.221Z,105
2017-06-24T04:57:58.346Z,95
2017-06-24T04:58:58.326Z,95
2017-06-24T04:59:58.327Z,100
2017-06-24T05:00:58.428Z,100
2017-06-24T05:01:58.554Z,100
2017-06-24T05:02:58.858Z,100
2017-06-24T05:03:58.466Z,95
2017-06-24T05:04:58.511Z,90
2017-06-24T05:05:58.618Z,85
2017-06-24T05:06:58.587Z,80
2017-06-24T05:07:58.793Z,80
2017-06-24T05:08:58.682Z,80
2017-06-24T05:09:58.952Z,80
2017-06-24T05:10:58.747Z,80
2017-06-24T05:11:58.770Z,85
2017-06-24T05:12:59.001Z,85
2017-06-24T05:13:58.862Z,85
2017-06-24T05:14:58.925Z,85
2017-06-24T05:19:35.882Z,80
2017-06-24T05:20:35.946Z,80
2017-06-24T05:21:35.992Z,85
2017-06-24T05:22:36.004Z,100
2017-06-24T05:23:36.117Z,115
2017-06-24T05:24:36.059Z,115
2017-06-24T05:25:36.104Z,115
2017-06-24T05:26:36.142Z,110
2017-06-24T05:27:36.189Z,105
2017-06-24T05:28:36.217Z,115
2017-06-24T05:29:36.248Z,130
2017-06-24T05:30:36.354Z,145
2017-06-24T05:31:36.373Z,160
2017-06-24T05:32:36.300Z,170
2017-06-24T05:33:36.411Z,200
2017-06-24T05:34:36.446Z,245
2017-06-24T05:35:36.420Z,290
2017-06-24T05:36:36.529Z,300
2017-06-24T05:37:36.532Z,255
2017-06-24T05:38:36.564Z,220
2017-06-24T05:39:40.587Z,200
2017-06-24T05:40:36.652Z,195
2017-06-24T05:41:36.672Z,190
2017-06-24T05:42:36.663Z,200
2017-06-24T05:43:36.716Z,205
2017-06-24T05:44:36.833Z,215
2017-06-24T05:45:36.832Z,220
2017-06-24T05:46:36.874Z,245
2017-06-24T05:47:36.893Z,285
2017-06-24T05:48:36.901Z,295
2017-06-24T05:49:36.972Z,285
2017-06-24T05:50:37.018Z,260
2017-06-24T05:51:37.085Z,245
2017-06-24T05:52:37.070Z,230
2017-06-24T05:53:37.108Z,230
2017-06-24T05:54:37.180Z,220
2017-06-24T05:55:37.137Z,200
2017-06-24T05:56:37.218Z,200
2017-06-24T05:57:37.265Z,200
2017-06-24T05:58:37.281Z,195
2017-06-24T05:59:37.325Z,205
2017-06-24T06:00:37.364Z,220
2017-06-24T06:01:37.405Z,225
2017-06-24T06:02:37.464Z,220
2017-06-24T06:03:37.474Z,210
2017-06-24T06:04:37.535Z,210
2017-06-24T06:05:37.535Z,220
2017-06-24T06:06:37.624Z,235
2017-06-24T06:07:37.586Z,230
2017-06-24T06:08:37.667Z,250
2017-06-24T06:09:37.717Z,280
2017-06-24T06:10:37.730Z,310
2017-06-24T06:11:38.423Z,340
2017-06-24T06:12:37.777Z,320
2017-06-24T06:13:37.869Z,305
2017-06-24T06:14:37.868Z,290
2017-06-24T06:15:37.965Z,265
2017-06-24T06:16:37.915Z,250
2017-06-24T06:17:38.002Z,250
2017-06-24T06:18:38.043Z,250
2017-06-24T06:19:38.053Z,240
2017-06-24T06:20:38.122Z,255
2017-06-24T06:21:38.139Z,320
2017-06-24T06:22:38.180Z,375
2017-06-24T06:23:38.257Z,325
2017-06-24T06:24:38.220Z,265
2017-06-24T06:25:38.301Z,235
2017-06-24T06:26:38.342Z,240
2017-06-24T06:27:38.364Z,270
2017-06-24T06:28:38.361Z,275
2017-06-24T06:29:38.396Z,260
2017-06-24T06:30:38.470Z,250
2017-06-24T06:31:38.496Z,240
2017-06-24T06:32:38.566Z,215
2017-06-24T06:33:38.613Z,215
2017-06-24T06:34:38.620Z,225
2017-06-24T06:35:38.640Z,230
2017-06-24T06:36:38.667Z,230
2017-06-24T06:37:38.666Z,225
2017-06-24T06:38:38.750Z,220
2017-06-24T06:39:38.763Z,220
2017-06-24T06:40:38.865Z,225
2017-06-24T06:41:38.874Z,220
2017-06-24T06:42:38.935Z,210
2017-06-24T06:43:38.940Z,195
2017-06-24T06:44:38.982Z,200
2017-06-24T06:45:39.022Z,225
2017-06-24T06:46:39.034Z,245
2017-06-24T06:47:39.135Z,250
2017-06-24T06:48:39.099Z,250
2017-06-24T06:49:39.177Z,240
2017-06-24T06:50:39.164Z,220
2017-06-24T06:51:39.261Z,195
2017-06-24T06:52:39.309Z,175
2017-06-24T06:53:39.331Z,160
2017-06-24T06:54:39.332Z,150
2017-06-24T06:55:39.392Z,150
2017-06-24T06:56:39.424Z,155
2017-06-24T06:57:39.471Z,165
2017-06-24T06:58:39.557Z,190
2017-06-24T06:59:39.547Z,215
2017-06-24T07:00:39.588Z,240
2017-06-24T07:01:39.622Z,245
2017-06-24T07:02:39.680Z,255
2017-06-24T07:03:39.671Z,290
2017-06-24T07:04:39.740Z,325
2017-06-24T07:05:39.760Z,325
2017-06-24T07:06:39.785Z,320
2017-06-24T07:07:39.862Z,300
2017-06-24T07:08:39.876Z,285
2017-06-24T07:09:39.936Z,275
2017-06-24T07:10:39.949Z,285
2017-06-24T07:11:39.959Z,310
2017-06-24T07:12:40.050Z,315
2017-06-24T07:13:40.036Z,305
2017-06-24T07:14:40.089Z,315
2017-06-24T07:15:40.142Z,305
2017-06-24T07:16:40.161Z,305
2017-06-24T07:17:40.195Z,325
2017-06-24T07:18:40.276Z,300
2017-06-24T07:19:40.279Z,275
2017-06-24T07:20:40.373Z,260
2017-06-24T07:21:40.378Z,240
2017-06-24T07:22:40.419Z,235
2017-06-24T07:23:40.409Z,215
2017-06-24T07:24:40.444Z,205
2017-06-24T07:25:40.537Z,210
2017-06-24T07:26:40.577Z,210
2017-06-24T07:27:40.579Z,210
2017-06-24T07:28:40.641Z,210
2017-06-24T07:29:40.633Z,210
2017-06-24T07:30:40.644Z,210
2017-06-24T07:31:40.760Z,230
2017-06-24T07:32:40.762Z,255
2017-06-24T07:33:40.784Z,265
2017-06-24T07:34:40.824Z,235
2017-06-24T07:35:40.824Z,210
2017-06-24T07:36:40.970Z,205
2017-06-24T07:37:40.910Z,210
2017-06-24T07:38:40.988Z,205
2017-06-24T07:39:41.086Z,200
2017-06-24T07:40:41.062Z,200
2017-06-24T07:41:41.101Z,200
2017-06-24T07:42:41.125Z,195
2017-06-24T07:43:41.153Z,200
2017-06-24T07:44:41.239Z,220
2017-06-24T07:45:41.245Z,245
2017-06-24T07:46:41.324Z,255
2017-06-24T07:47:41.296Z,260
2017-06-24T07:48:41.334Z,245
2017-06-24T07:49:41.445Z,245
2017-06-24T07:50:41.386Z,280
2017-06-24T07:51:41.455Z,300
2017-06-24T07:52:41.453Z,295
2017-06-24T07:53:41.550Z,280
2017-06-24T07:54:41.582Z,270
2017-06-24T07:55:41.648Z,290
2017-06-24T07:56:41.689Z,305
2017-06-24T07:57:41.757Z,280
2017-06-24T07:58:41.725Z,275
2017-06-24T07:59:41.735Z,290
2017-06-24T08:00:41.784Z,280
2017-06-24T08:01:41.835Z,260
2017-06-24T08:02:41.823Z,240
2017-06-24T08:03:41.928Z,220
2017-06-24T08:04:41.968Z,205
2017-06-24T08:05:41.986Z,205
2017-06-24T08:06:42.033Z,210
2017-06-24T08:07:42.081Z,215
2017-06-24T08:08:42.120Z,230
2017-06-24T08:09:42.071Z,250
2017-06-24T08:10:42.178Z,270
2017-06-24T08:11:42.248Z,280
2017-06-24T08:12:42.194Z,265
2017-06-24T08:13:42.294Z,260
2017-06-24T08:14:42.383Z,275
2017-06-24T08:15:42.354Z,290
2017-06-24T08:16:42.412Z,295
2017-06-24T08:17:42.397Z,285
2017-06-24T08:18:42.479Z,270
2017-06-24T08:19:42.536Z,245
2017-06-24T08:20:42.601Z,230
2017-06-24T08:21:42.566Z,220
2017-06-24T08:22:42.590Z,235
2017-06-24T08:23:42.668Z,240
2017-06-24T08:24:42.752Z,230
2017-06-24T08:25:42.726Z,230
2017-06-24T08:26:42.799Z,230
2017-06-24T08:27:42.785Z,230
2017-06-24T08:28:42.821Z,240
2017-06-24T08:29:42.893Z,255
2017-06-24T08:30:42.919Z,250
2017-06-24T08:31:42.934Z,245
2017-06-24T08:32:42.977Z,245
2017-06-24T08:33:43.086Z,225
2017-06-24T08:34:43.100Z,220
2017-06-24T08:35:43.115Z,225
2017-06-24T08:36:43.151Z,230
2017-06-24T08:37:43.165Z,240
2017-06-24T08:38:43.187Z,240
2017-06-24T08:39:43.242Z,235
2017-06-24T08:40:43.304Z,240
2017-06-24T08:41:43.295Z,235
2017-06-24T08:42:43.382Z,225
2017-06-24T08:43:43.418Z,205
2017-06-24T08:44:43.422Z,225
2017-06-24T08:45:43.467Z,240
2017-06-24T08:46:43.494Z,240
2017-06-24T08:47:43.592Z,230
2017-06-24T08:48:43.597Z,235
2017-06-24T08:49:43.660Z,265
2017-06-24T08:50:43.694Z,300
2017-06-24T08:51:43.690Z,300
2017-06-24T08:52:43.795Z,290
2017-06-24T08:53:43.743Z,285
2017-06-24T08:54:43.797Z,270
2017-06-24T08:55:43.877Z,265
2017-06-24T08:56:43.883Z,280
2017-06-24T08:57:43.931Z,285
2017-06-24T08:58:43.940Z,310
2017-06-24T08:59:43.983Z,320
2017-06-24T09:00:44.055Z,325
2017-06-24T09:01:44.108Z,355
2017-06-24T09:02:44.117Z,390
2017-06-24T09:03:44.157Z,395
2017-06-24T09:04:44.160Z,380
2017-06-24T09:05:44.223Z,365
2017-06-24T09:06:44.215Z,380
2017-06-24T09:07:44.288Z,380
2017-06-24T09:08:44.292Z,405
2017-06-24T09:09:44.417Z,475
2017-06-24T09:10:44.448Z,435
2017-06-24T09:11:44.501Z,390
2017-06-24T09:12:44.510Z,340
2017-06-24T09:13:44.520Z,310
2017-06-24T09:14:44.565Z,310
2017-06-24T09:15:44.588Z,330
2017-06-24T09:16:44.624Z,330
2017-06-24T09:17:44.631Z,320
2017-06-24T09:18:44.721Z,320
2017-06-24T09:19:44.760Z,355
2017-06-24T09:20:44.776Z,395
2017-06-24T09:21:44.785Z,405
2017-06-24T09:22:44.906Z,445
2017-06-24T09:23:44.906Z,495
2017-06-24T09:24:44.989Z,465
2017-06-24T09:25:44.963Z,435
2017-06-24T09:26:44.969Z,410
2017-06-24T09:27:45.085Z,425
2017-06-24T09:28:45.105Z,410
2017-06-24T09:29:45.139Z,360
2017-06-24T09:30:45.142Z,340
2017-06-24T09:31:45.201Z,330
2017-06-24T09:32:45.242Z,305
2017-06-24T09:33:45.260Z,295
2017-06-24T09:34:45.307Z,315
2017-06-24T09:35:45.383Z,350
2017-06-24T09:36:45.392Z,365
2017-06-24T09:37:45.459Z,395
2017-06-24T09:38:45.503Z,445
2017-06-24T09:39:45.509Z,435
2017-06-24T09:40:45.556Z,465
2017-06-24T09:41:45.568Z,545
2017-06-24T09:42:45.631Z,565
2017-06-24T09:43:45.643Z,585
2017-06-24T09:44:45.690Z,595
2017-06-24T09:45:45.769Z,635
2017-06-24T09:46:45.792Z,665
2017-06-24T09:47:45.819Z,640
2017-06-24T09:48:45.888Z,585
2017-06-24T09:49:45.862Z,535
2017-06-24T09:50:45.903Z,500
2017-06-24T09:51:45.946Z,490
2017-06-24T09:52:45.998Z,480
2017-06-24T09:53:46.054Z,450
2017-06-24T09:54:46.113Z,435
2017-06-24T09:55:46.112Z,435
2017-06-24T09:56:46.139Z,445
2017-06-24T09:57:46.145Z,480
2017-06-24T09:58:46.204Z,655
2017-06-24T09:59:46.290Z,705
2017-06-24T10:00:46.268Z,805
2017-06-24T10:01:46.316Z,2150
2017-06-24T10:02:46.367Z,925
2017-06-24T10:03:46.385Z,775
2017-06-24T10:04:46.446Z,670
2017-06-24T10:05:46.477Z,565
2017-06-24T10:06:46.557Z,510
2017-06-24T10:07:46.585Z,510
2017-06-24T10:08:46.630Z,520
2017-06-24T10:09:46.684Z,770
2017-06-24T10:10:46.741Z,895
2017-06-24T10:11:46.760Z,745
2017-06-24T10:12:46.823Z,615
2017-06-24T10:13:46.858Z,565
2017-06-24T10:14:46.871Z,485
2017-06-24T10:15:46.847Z,445
2017-06-24T10:16:46.934Z,510
2017-06-24T10:17:46.986Z,575
2017-06-24T10:18:47.065Z,630
2017-06-24T10:19:47.079Z,515
2017-06-24T10:20:47.019Z,420
2017-06-24T10:21:47.180Z,395
2017-06-24T10:22:47.141Z,425
2017-06-24T10:23:47.231Z,500
2017-06-24T10:24:47.244Z,540
2017-06-24T10:25:47.246Z,505
2017-06-24T10:26:47.295Z,460
2017-06-24T10:27:47.384Z,410
2017-06-24T10:28:47.420Z,415
2017-06-24T10:29:47.492Z,455
2017-06-24T10:30:47.483Z,480
2017-06-24T10:31:47.528Z,500
2017-06-24T10:32:47.544Z,490
2017-06-24T10:33:47.604Z,505
2017-06-24T10:34:47.627Z,585
2017-06-24T10:35:47.629Z,590
2017-06-24T10:36:47.720Z,525
2017-06-24T10:37:47.739Z,470
2017-06-24T10:38:47.748Z,470
2017-06-24T10:39:47.827Z,460
2017-06-24T10:40:47.878Z,435
2017-06-24T10:41:47.866Z,485
2017-06-24T10:42:47.942Z,470
2017-06-24T10:43:47.978Z,485
2017-06-24T10:44:48.050Z,585
2017-06-24T10:45:48.055Z,545
2017-06-24T10:46:48.118Z,495
2017-06-24T10:47:48.132Z,500
2017-06-24T10:48:48.194Z,505
2017-06-24T10:49:48.184Z,480
2017-06-24T10:50:48.248Z,455
2017-06-24T10:51:48.250Z,440
2017-06-24T10:52:48.336Z,420
2017-06-24T10:53:48.369Z,430
2017-06-24T10:54:48.392Z,470
2017-06-24T10:55:48.478Z,465
2017-06-24T10:56:48.495Z,485
2017-06-24T10:57:48.531Z,450
2017-06-24T10:58:48.619Z,475
2017-06-24T10:59:48.645Z,470
2017-06-24T11:00:48.662Z,390
2017-06-24T11:01:48.675Z,355
2017-06-24T11:02:48.786Z,330
2017-06-24T11:03:48.797Z,255
2017-06-24T11:04:48.833Z,210
2017-06-24T11:05:48.894Z,185
2017-06-24T11:06:48.867Z,175
2017-06-24T11:07:48.918Z,200
2017-06-24T11:08:48.979Z,210
2017-06-24T11:09:49.006Z,200
2017-06-24T11:10:49.090Z,185
2017-06-24T11:11:49.137Z,185
2017-06-24T11:12:49.096Z,180
2017-06-24T11:13:49.132Z,165
2017-06-24T11:14:49.221Z,160
2017-06-24T11:15:49.227Z,175
2017-06-24T11:16:49.300Z,170
2017-06-24T11:17:49.377Z,180
2017-06-24T11:18:49.332Z,205
2017-06-24T11:19:49.362Z,245
2017-06-24T11:20:49.437Z,275
2017-06-24T11:21:49.497Z,340
2017-06-24T11:22:49.504Z,450
2017-06-24T11:23:49.604Z,570
2017-06-24T11:24:49.633Z,715
2017-06-24T11:25:49.643Z,775
2017-06-24T11:26:49.631Z,885
2017-06-24T11:27:49.716Z,885
2017-06-24T11:28:49.743Z,705
2017-06-24T11:29:49.829Z,575
2017-06-24T11:30:49.889Z,495
2017-06-24T11:31:49.899Z,385
2017-06-24T11:32:49.932Z,310
2017-06-24T11:33:49.928Z,250
2017-06-24T11:34:50.019Z,225
2017-06-24T11:35:50.086Z,205
2017-06-24T11:36:50.104Z,185
2017-06-24T11:37:50.108Z,175
2017-06-24T11:38:50.179Z,180
2017-06-24T11:39:50.193Z,215
2017-06-24T11:40:50.206Z,305
2017-06-24T11:41:50.244Z,305
2017-06-24T11:42:50.306Z,275
2017-06-24T11:43:50.317Z,270
2017-06-24T11:44:50.384Z,280
2017-06-24T11:45:50.437Z,260
2017-06-24T11:46:50.428Z,205
2017-06-24T11:47:50.503Z,190
2017-06-24T11:48:50.571Z,185
2017-06-24T11:49:50.578Z,160
2017-06-24T11:50:50.638Z,180
2017-06-24T11:51:50.637Z,255
2017-06-24T11:52:50.716Z,315
2017-06-24T11:53:50.715Z,325
2017-06-24T11:54:50.766Z,310
2017-06-24T11:55:50.832Z,300
2017-06-24T11:56:50.827Z,335
2017-06-24T11:57:50.845Z,375
2017-06-24T11:58:50.854Z,450
2017-06-24T11:59:51.016Z,425
2017-06-24T12:00:50.997Z,400
2017-06-24T12:01:51.013Z,400
2017-06-24T12:02:51.082Z,395
2017-06-24T12:03:51.145Z,400
2017-06-24T12:04:51.129Z,450
2017-06-24T12:05:51.181Z,535
2017-06-24T12:06:51.269Z,570
2017-06-24T12:07:51.303Z,605
2017-06-24T12:08:51.337Z,585
2017-06-24T12:09:51.354Z,485
2017-06-24T12:10:51.331Z,490
2017-06-24T12:11:51.431Z,580
2017-06-24T12:12:51.466Z,605
2017-06-24T12:13:51.445Z,445
2017-06-24T12:14:51.504Z,355
2017-06-24T12:15:51.586Z,375
2017-06-24T12:16:51.573Z,335
2017-06-24T12:17:51.677Z,300
2017-06-24T12:18:51.741Z,390
2017-06-24T12:19:51.747Z,490
2017-06-24T12:20:51.817Z,555
2017-06-24T12:21:51.782Z,640
2017-06-24T12:22:51.826Z,645
2017-06-24T12:23:51.838Z,580
2017-06-24T12:24:51.933Z,690
2017-06-24T12:25:51.976Z,680
2017-06-24T12:26:51.961Z,715
2017-06-24T12:27:52.043Z,710
2017-06-24T12:28:52.105Z,710
2017-06-24T12:29:52.065Z,685
2017-06-24T12:30:52.164Z,655
2017-06-24T12:31:52.236Z,665
2017-06-24T12:32:52.241Z,705
2017-06-24T12:33:52.208Z,755
2017-06-24T12:34:52.289Z,735
2017-06-24T12:35:52.330Z,660
2017-06-24T12:36:52.409Z,620
2017-06-24T12:37:52.397Z,585
2017-06-24T12:38:52.460Z,585
2017-06-24T12:39:52.521Z,590
2017-06-24T12:40:52.550Z,550
2017-06-24T12:41:52.577Z,530
2017-06-24T12:42:52.641Z,515
2017-06-24T12:43:52.685Z,515
2017-06-24T12:44:52.654Z,530
2017-06-24T12:45:52.840Z,530
2017-06-24T12:46:52.806Z,520
2017-06-24T12:47:52.799Z,535
2017-06-24T12:48:52.835Z,555
2017-06-24T12:49:52.894Z,555
2017-06-24T12:50:53.026Z,560
2017-06-24T12:51:52.954Z,550
2017-06-24T12:52:53.028Z,530
2017-06-24T12:53:53.079Z,520
2017-06-24T12:54:53.132Z,540
2017-06-24T12:55:53.156Z,570
2017-06-24T12:56:53.200Z,600
2017-06-24T12:57:53.205Z,620
2017-06-24T12:58:53.243Z,665
2017-06-24T12:59:53.285Z,635
2017-06-24T13:00:53.492Z,625
2017-06-24T13:01:53.411Z,615
2017-06-24T13:02:53.408Z,655
2017-06-24T13:03:53.530Z,675
2017-06-24T13:04:53.518Z,635
2017-06-24T13:05:53.658Z,625
2017-06-24T13:06:53.590Z,630
2017-06-24T13:07:53.573Z,630
2017-06-24T13:08:53.699Z,605
2017-06-24T13:09:53.751Z,550
2017-06-24T13:10:53.758Z,560
2017-06-24T13:11:53.825Z,560
2017-06-24T13:12:53.830Z,540
2017-06-24T13:13:53.853Z,545
2017-06-24T13:14:53.910Z,550
2017-06-24T13:15:53.947Z,565
2017-06-24T13:16:53.995Z,555
2017-06-24T13:17:54.038Z,585
2017-06-24T13:18:54.046Z,570
2017-06-24T13:19:54.139Z,555
2017-06-24T13:20:54.364Z,545
2017-06-24T13:21:54.158Z,545
2017-06-24T13:22:54.189Z,535
2017-06-24T13:23:54.262Z,560
2017-06-24T13:24:54.309Z,555
2017-06-24T13:25:54.341Z,520
2017-06-24T13:26:54.463Z,505
2017-06-24T13:27:54.411Z,500
2017-06-24T13:28:54.442Z,475
2017-06-24T13:29:54.475Z,505
2017-06-24T13:30:54.559Z,560
2017-06-24T13:31:54.637Z,590
2017-06-24T13:32:54.605Z,590
2017-06-24T13:33:54.648Z,585
2017-06-24T13:34:54.698Z,485
2017-06-24T13:35:54.707Z,420
2017-06-24T13:36:54.797Z,425
2017-06-24T13:37:54.776Z,480
2017-06-24T13:38:54.871Z,505
2017-06-24T13:39:54.948Z,530
2017-06-24T13:40:54.961Z,540
2017-06-24T13:41:55.040Z,555
2017-06-24T13:42:54.969Z,545
2017-06-24T13:43:55.080Z,550
2017-06-24T13:44:55.117Z,535
2017-06-24T13:45:55.159Z,550
2017-06-24T13:46:55.290Z,505
2017-06-24T13:47:55.211Z,480
2017-06-24T13:48:55.299Z,470
2017-06-24T13:49:55.339Z,430
2017-06-24T13:50:55.364Z,390
2017-06-24T13:51:55.728Z,415
2017-06-24T13:52:55.391Z,410
2017-06-24T13:53:55.501Z,430
2017-06-24T13:54:55.526Z,405
2017-06-24T13:55:55.521Z,385
2017-06-24T13:56:55.567Z,400
2017-06-24T13:57:55.579Z,415
2017-06-24T13:58:55.646Z,420
2017-06-24T13:59:55.686Z,425
2017-06-24T14:00:55.730Z,425
2017-06-24T14:01:55.967Z,440
2017-06-24T14:02:55.779Z,440
2017-06-24T14:03:55.877Z,425
2017-06-24T14:04:55.890Z,450
2017-06-24T14:05:56.002Z,470
2017-06-24T14:06:56.148Z,480
2017-06-24T14:07:56.027Z,495